createdAt,value
2018-10-02T00:06:21.209Z,2.80
2018-10-02T00:16:24.431Z,2.83
2018-10-02T00:26:27.661Z,2.87
2018-10-02T00:36:30.932Z,2.50
2018-10-02T00:46:34.169Z,2.80
2018-10-02T00:56:37.422Z,2.90
2018-10-02T01:06:40.730Z,2.90
2018-10-02T01:16:44.224Z,3.03
2018-10-02T01:26:47.465Z,3.03
2018-10-02T01:36:50.684Z,3.30
2018-10-02T01:46:53.957Z,3.47
2018-10-02T01:56:57.205Z,3.67
2018-10-02T02:07:00.452Z,4.07
2018-10-02T02:17:03.676Z,4.80
2018-10-02T02:27:06.908Z,4.40
2018-10-02T02:37:10.136Z,4.80
2018-10-02T02:47:18.520Z,5.23
2018-10-02T02:57:21.771Z,4.93
2018-10-02T03:07:25.016Z,4.90
2018-10-02T03:17:28.216Z,4.50
2018-10-02T03:27:31.453Z,4.80
2018-10-02T03:37:34.709Z,5.30
2018-10-02T03:47:37.936Z,4.70
2018-10-02T03:57:41.191Z,4.87
2018-10-02T04:07:44.425Z,5.13
2018-10-02T04:17:48.180Z,5.00
2018-10-02T04:27:51.431Z,7.33
2018-10-02T04:37:54.628Z,5.50
2018-10-02T04:47:57.916Z,5.10
2018-10-02T04:58:01.181Z,5.20
2018-10-02T05:08:04.437Z,5.00
2018-10-02T05:18:07.749Z,5.20
2018-10-02T05:28:11.256Z,5.10
2018-10-02T05:38:14.711Z,4.97
2018-10-02T05:48:17.953Z,5.00
2018-10-02T05:58:21.314Z,5.30
2018-10-02T06:08:25.147Z,5.17
2018-10-02T06:18:28.384Z,5.33
2018-10-02T06:28:31.621Z,5.00
2018-10-02T06:38:35.157Z,5.13
2018-10-02T06:48:38.196Z,4.90
2018-10-02T06:58:41.408Z,4.63
2018-10-02T07:08:44.779Z,4.47
2018-10-02T07:18:48.237Z,4.53
2018-10-02T07:28:51.609Z,4.30
2018-10-02T07:38:54.856Z,4.13
2018-10-02T07:48:58.156Z,3.40
2018-10-02T07:59:01.395Z,4.33
2018-10-02T08:09:08.024Z,4.07
2018-10-02T08:19:11.292Z,3.80
2018-10-02T08:29:14.533Z,3.10
2018-10-02T08:39:17.716Z,3.53
2018-10-02T08:49:20.953Z,2.97
2018-10-02T08:59:25.471Z,2.70
2018-10-02T09:09:28.921Z,2.73
2018-10-02T09:19:32.472Z,2.37
2018-10-02T09:29:39.938Z,2.70
2018-10-02T09:39:48.621Z,2.10
2018-10-02T09:49:51.880Z,2.00
2018-10-02T09:59:55.089Z,2.27
2018-10-02T10:09:58.352Z,2.33
2018-10-02T10:20:01.552Z,2.30
2018-10-02T10:30:04.841Z,2.20
2018-10-02T10:40:08.097Z,2.43
2018-10-02T10:50:11.389Z,2.70
2018-10-02T11:00:14.628Z,2.20
2018-10-02T11:10:18.780Z,2.60
2018-10-02T11:20:24.235Z,2.80
2018-10-02T11:30:27.743Z,2.47
2018-10-02T11:40:31.068Z,2.57
2018-10-02T11:50:35.036Z,2.53
2018-10-02T12:00:38.319Z,2.30
2018-10-02T12:10:41.505Z,2.50
2018-10-02T12:20:44.755Z,2.30
2018-10-02T12:30:47.963Z,2.50
2018-10-02T12:40:51.173Z,6.03
2018-10-02T12:50:54.391Z,2.93
2018-10-02T13:00:57.624Z,1.90
2018-10-02T13:11:00.876Z,2.00
2018-10-02T13:21:04.225Z,2.00
2018-10-02T13:31:07.449Z,1.90
2018-10-02T13:41:10.674Z,2.10
2018-10-02T13:51:14.760Z,2.10
2018-10-02T14:01:18.027Z,2.33
2018-10-02T14:11:21.316Z,1.90
2018-10-02T14:21:24.601Z,1.77
2018-10-02T14:31:28.048Z,2.10
2018-10-02T14:41:31.284Z,1.77
2018-10-02T14:51:34.662Z,1.73
2018-10-02T15:01:37.940Z,2.00
2018-10-02T15:11:41.330Z,2.37
2018-10-02T15:21:44.597Z,2.30
2018-10-02T15:31:48.029Z,2.60
2018-10-02T15:41:51.270Z,1.90
2018-10-02T15:51:54.520Z,1.83
2018-10-02T16:01:58.888Z,2.20
2018-10-02T16:12:02.204Z,2.17
2018-10-02T16:22:05.683Z,2.80
2018-10-02T16:32:09.046Z,2.00
2018-10-02T16:42:12.289Z,3.40
2018-10-02T16:52:15.516Z,1.97
2018-10-02T17:02:18.776Z,1.60
2018-10-02T17:12:22.039Z,1.70
2018-10-02T17:22:25.280Z,1.90
2018-10-02T17:32:28.552Z,1.80
2018-10-02T17:42:32.397Z,1.73
2018-10-02T17:52:35.675Z,1.70
2018-10-02T18:02:38.971Z,1.90
2018-10-02T18:12:42.239Z,2.07
2018-10-02T18:22:45.544Z,2.23
2018-10-02T18:32:48.882Z,1.90
2018-10-02T18:42:52.165Z,2.10
2018-10-02T18:52:55.412Z,2.10
2018-10-02T19:02:58.662Z,1.90
2018-10-02T19:13:01.945Z,2.10
2018-10-02T19:23:05.223Z,2.60
2018-10-02T19:33:08.501Z,2.60
2018-10-02T19:43:11.797Z,2.37
2018-10-02T19:53:15.462Z,2.97
2018-10-02T20:03:18.770Z,2.73
2018-10-02T20:13:22.126Z,2.80
2018-10-02T20:23:25.501Z,3.20
2018-10-02T20:33:28.740Z,3.30
2018-10-02T20:43:31.997Z,3.40
2018-10-02T20:53:35.304Z,3.33
2018-10-02T21:03:38.558Z,3.10
2018-10-02T21:13:42.630Z,3.40
2018-10-02T21:23:45.860Z,3.60
2018-10-02T21:33:49.096Z,3.87
2018-10-02T21:43:52.379Z,4.23
2018-10-02T21:53:55.616Z,3.50
2018-10-02T22:03:58.890Z,3.83
2018-10-02T22:14:02.161Z,4.47
2018-10-02T22:24:05.446Z,4.23
2018-10-02T22:34:08.668Z,4.17
2018-10-02T22:44:11.978Z,4.00
2018-10-02T22:54:15.319Z,4.37
2018-10-02T23:04:18.634Z,3.70
2018-10-02T23:14:21.957Z,3.87
2018-10-02T23:24:25.272Z,3.47
2018-10-02T23:34:28.524Z,3.60
2018-10-02T23:44:31.763Z,3.53
2018-10-02T23:54:35.002Z,3.40
